• Join FlightAware (Why Join?)
  • Login
  • US Flag 
03:08AM EDT


 

Airport Tracker/Info


-or-


 

Live Flight TrackerFlight Track Log ✈ N500TC ✈ 03-Apr-2014 ✈ KHFF - KFLO

Flight Track Log - Related Links

Times and Time Zones

All times are in EDT time to prevent confusion due to time zone crossing. See the N500TC flight status page for this flight to view local times or setup timezone preferences in your user account.

Time Position Orientation Groundspeed Altitude Reporting Facility
EDT Latitude Longitude Course Direction KTS MPH feet Rate Location/Type
05:53PM 34.8652 -79.5379 192° South  Level FlightAware Approximate
05:54PM 34.8365 -79.5451 192° South  Level FlightAware Approximate
05:55PM 34.8077 -79.5523 192° South  Level FlightAware Approximate
05:56PM 34.7790 -79.5595 192° South  Level FlightAware Approximate
05:57PM 34.7502 -79.5667 192° South  Level FlightAware Approximate
05:58PM 34.7215 -79.5739 192° South  Level FlightAware Approximate
05:59PM 34.6927 -79.5810 192° South  Level FlightAware Approximate
06:00PM 34.6640 -79.5882 192° South  Level FlightAware Approximate
06:01PM 34.6352 -79.5954 192° South  Level FlightAware Approximate
06:02PM 34.6064 -79.6026 192° South  Level FlightAware Approximate
06:03PM 34.5777 -79.6098 192° South  Level FlightAware Approximate
06:04PM 34.5489 -79.6170 192° South  Level FlightAware Approximate
06:05PM 34.5202 -79.6242 192° South  Level FlightAware Approximate
06:06PM 34.4914 -79.6314 192° South  Level FlightAware Approximate
06:07PM 34.4627 -79.6385 192° South  Level FlightAware Approximate
06:08PM 34.4339 -79.6457 192° South  Level FlightAware Approximate
06:09PM 34.4052 -79.6529 192° South  Level FlightAware Approximate
06:10PM 34.3764 -79.6601 192° South  Level FlightAware Approximate
06:11PM 34.3477 -79.6674 195° South  Level FlightAware Approximate
06:12PM 34.3194 -79.6769 195° South  Level FlightAware Approximate
06:13PM 34.2911 -79.6863 195° South  Level FlightAware Approximate
06:14PM 34.2628 -79.6957 195° South  Level FlightAware Approximate
06:15PM 34.2343 -79.7039 192° South  Level FlightAware Approximate
06:16PM 34.2055 -79.7111 192° South  Level FlightAware Approximate
06:17PM 34.1833 -79.7167 192° South  Level FlightAware Approximate
06:18PM 34.1854 -79.7239 40° Northeast  Level Estimated
06:19PM 34.1854 -79.7239 109° East  Level Estimated
06:20PM 34.1833 -79.7167 192° South  Level FlightAware Approximate
06:21PM 34.1854 -79.7239 40° Northeast  Level Estimated
06:22PM 34.1854 -79.7239 109° East  Level Estimated
06:23PM 34.1833 -79.7167 192° South  Level FlightAware Approximate
06:24PM 34.1854 -79.7239 40° Northeast  Level Estimated
06:25PM 34.1854 -79.7239 109° East  Level Estimated
06:26PM 34.1833 -79.7167 192° South  Level FlightAware Approximate
06:27PM 34.1854 -79.7239 40° Northeast  Level Estimated
06:28PM 34.1854 -79.7239 109° East  Level Estimated
06:29PM 34.1833 -79.7167 192° South  Level FlightAware Approximate
06:30PM 34.1854 -79.7239 40° Northeast  Level Estimated